createdAt,value
2018-05-10T00:01:52.869Z,96524.91
2018-05-10T00:04:23.847Z,96526.03
2018-05-10T00:06:54.907Z,96522.41
2018-05-10T00:09:25.932Z,96527.91
2018-05-10T00:11:56.917Z,96528.55
2018-05-10T00:14:27.958Z,96523.78
2018-05-10T00:16:58.950Z,96525.89
2018-05-10T00:19:29.960Z,96526.92
2018-05-10T00:22:00.911Z,96520.66
2018-05-10T00:24:31.896Z,96517.83
2018-05-10T00:27:02.932Z,96518.88
2018-05-10T00:29:33.866Z,96511.94
2018-05-10T00:32:04.890Z,96513.50
2018-05-10T00:34:35.870Z,96526.25
2018-05-10T00:37:06.872Z,96521.78
2018-05-10T00:39:52.767Z,96524.53
2018-05-10T00:42:23.767Z,96525.14
2018-05-10T00:44:54.747Z,96527.38
2018-05-10T00:47:25.763Z,96524.32
2018-05-10T00:49:56.812Z,96525.14
2018-05-10T00:52:27.818Z,96530.16
2018-05-10T00:54:58.830Z,96520.66
2018-05-10T00:57:29.836Z,96524.02
2018-05-10T01:00:00.844Z,96527.77
2018-05-10T01:02:31.826Z,96530.91
2018-05-10T01:05:02.880Z,96524.87
2018-05-10T01:07:33.870Z,96529.64
2018-05-10T01:10:04.878Z,96532.45
2018-05-10T01:12:35.880Z,96536.92
2018-05-10T01:15:06.883Z,96538.64
2018-05-10T01:17:37.900Z,96532.39
2018-05-10T01:20:08.890Z,96533.23
2018-05-10T01:22:39.868Z,96529.09
2018-05-10T01:25:10.866Z,96534.32
2018-05-10T01:27:41.894Z,96536.25
2018-05-10T01:30:12.898Z,96546.10
2018-05-10T01:32:43.901Z,96541.91
2018-05-10T01:35:27.148Z,96546.04
2018-05-10T01:37:58.148Z,96548.70
2018-05-10T01:40:29.188Z,96550.81
2018-05-10T01:43:00.165Z,96534.14
2018-05-10T01:45:31.152Z,96539.55
2018-05-10T01:48:02.186Z,96542.35
2018-05-10T01:50:33.191Z,96545.28
2018-05-10T01:53:11.134Z,96545.03
2018-05-10T01:55:42.158Z,96546.73
2018-05-10T01:58:13.142Z,96543.30
2018-05-10T02:00:44.160Z,96551.48
2018-05-10T02:03:15.123Z,96557.58
2018-05-10T02:05:46.149Z,96555.56
2018-05-10T02:08:17.119Z,96552.51
2018-05-10T02:10:48.121Z,96557.22
2018-05-10T02:13:19.153Z,96559.34
2018-05-10T02:15:50.167Z,96554.86
2018-05-10T02:18:21.163Z,96559.16
2018-05-10T02:20:52.118Z,96560.88
2018-05-10T02:23:23.096Z,96564.22
2018-05-10T02:25:54.094Z,96565.88
2018-05-10T02:28:25.121Z,96563.44
2018-05-10T02:30:56.127Z,96564.77
2018-05-10T02:33:27.083Z,96569.87
2018-05-10T02:35:58.081Z,96570.02
2018-05-10T02:38:29.091Z,96567.41
2018-05-10T02:41:00.108Z,96567.95
2018-05-10T02:43:31.107Z,96565.84
2018-05-10T02:46:02.181Z,96565.78
2018-05-10T02:48:33.184Z,96563.87
2018-05-10T02:51:04.158Z,96563.31
2018-05-10T02:53:35.136Z,96566.57
2018-05-10T02:56:06.176Z,96563.02
2018-05-10T02:58:37.169Z,96564.14
2018-05-10T03:01:08.190Z,96565.05
2018-05-10T03:03:39.247Z,96565.44
2018-05-10T03:06:10.302Z,96569.50
2018-05-10T03:08:41.353Z,96569.58
2018-05-10T03:11:12.363Z,96564.77
2018-05-10T03:13:43.389Z,96568.99
2018-05-10T03:16:14.379Z,96567.74
2018-05-10T03:18:45.382Z,96577.17
2018-05-10T03:21:16.333Z,96574.25
2018-05-10T03:23:47.330Z,96579.68
2018-05-10T03:26:18.413Z,96584.14
2018-05-10T03:28:49.473Z,96575.81
2018-05-10T03:31:20.475Z,96576.28
2018-05-10T03:33:51.452Z,96580.69
2018-05-10T03:36:22.448Z,96580.66
2018-05-10T03:38:53.449Z,96584.51
2018-05-10T03:41:24.443Z,96583.12
2018-05-10T03:43:55.500Z,96579.41
2018-05-10T03:46:26.559Z,96587.58
2018-05-10T03:48:57.473Z,96590.62
2018-05-10T03:51:28.414Z,96593.30
2018-05-10T03:53:59.483Z,96596.38
2018-05-10T03:56:30.473Z,96597.98
2018-05-10T03:59:01.452Z,96600.23
2018-05-10T04:01:32.413Z,96600.39
2018-05-10T04:04:19.552Z,96604.03
2018-05-10T04:07:02.944Z,96602.62
2018-05-10T04:09:46.463Z,96601.17
2018-05-10T04:12:17.484Z,96603.02
2018-05-10T04:14:48.475Z,96610.81
2018-05-10T04:17:19.453Z,96611.23
2018-05-10T04:19:50.447Z,96611.11
2018-05-10T04:22:21.451Z,96614.42
2018-05-10T04:24:52.463Z,96617.33
2018-05-10T04:27:23.435Z,96618.36
2018-05-10T04:29:54.407Z,96618.21
2018-05-10T04:32:25.427Z,96623.26
2018-05-10T04:34:56.370Z,96621.41
2018-05-10T04:37:27.358Z,96625.02
2018-05-10T04:39:58.306Z,96620.47
2018-05-10T04:42:29.277Z,96624.32
2018-05-10T04:45:00.284Z,96619.05
2018-05-10T04:47:31.288Z,96621.70
2018-05-10T04:50:02.352Z,96619.16
2018-05-10T04:52:33.362Z,96615.88
2018-05-10T04:55:04.355Z,96621.70
2018-05-10T04:57:35.334Z,96626.07
2018-05-10T05:00:06.344Z,96629.29
2018-05-10T05:02:37.308Z,96628.93
2018-05-10T05:05:08.296Z,96633.16
2018-05-10T05:07:39.297Z,96626.81
2018-05-10T05:10:10.296Z,96632.29
2018-05-10T05:12:41.300Z,96635.56
2018-05-10T05:15:12.263Z,96638.66
2018-05-10T05:17:43.280Z,96637.33
2018-05-10T05:20:14.258Z,96639.84
2018-05-10T05:22:45.235Z,96640.98
2018-05-10T05:25:16.229Z,96648.27
2018-05-10T05:27:47.221Z,96642.70
2018-05-10T05:30:18.231Z,96646.09
2018-05-10T05:32:49.206Z,96643.89
2018-05-10T05:35:20.209Z,96644.78
2018-05-10T05:37:51.188Z,96647.63
2018-05-10T05:40:22.204Z,96643.05
2018-05-10T05:42:53.185Z,96648.59
2018-05-10T05:45:24.203Z,96651.02
2018-05-10T05:47:55.175Z,96648.27
2018-05-10T05:50:26.213Z,96644.73
2018-05-10T05:52:57.158Z,96647.52
2018-05-10T05:55:28.156Z,96646.54
2018-05-10T05:57:59.102Z,96646.53
2018-05-10T06:00:30.111Z,96651.31
2018-05-10T06:03:01.084Z,96650.08
2018-05-10T06:05:32.074Z,96655.33
2018-05-10T06:08:03.090Z,96653.87
2018-05-10T06:10:34.119Z,96642.98
2018-05-10T06:13:05.079Z,96640.55
2018-05-10T06:15:36.159Z,96634.17
2018-05-10T06:18:09.986Z,96635.35
2018-05-10T06:20:40.989Z,96648.19
2018-05-10T06:23:12.014Z,96634.98
2018-05-10T06:25:43.010Z,96640.00
2018-05-10T06:28:14.053Z,96644.20
2018-05-10T06:30:45.026Z,96644.42
2018-05-10T06:33:16.070Z,96651.05
2018-05-10T06:35:47.068Z,96653.20
2018-05-10T06:38:18.088Z,96649.52
2018-05-10T06:40:49.068Z,96650.57
2018-05-10T06:43:20.098Z,96654.63
2018-05-10T06:45:51.069Z,96655.95
2018-05-10T06:48:22.082Z,96660.62
2018-05-10T06:50:53.102Z,96660.55
2018-05-10T06:53:24.136Z,96661.06
2018-05-10T06:55:55.167Z,96662.92
2018-05-10T06:58:26.188Z,96664.91
2018-05-10T07:00:57.204Z,96665.19
2018-05-10T07:03:28.263Z,96670.19
2018-05-10T07:05:59.262Z,96673.48
2018-05-10T07:08:30.287Z,96667.95
2018-05-10T07:11:01.258Z,96680.27
2018-05-10T07:13:32.288Z,96678.31
2018-05-10T07:16:03.294Z,96680.25
2018-05-10T07:18:34.317Z,96689.09
2018-05-10T07:21:05.288Z,96686.45
2018-05-10T07:23:36.281Z,96685.97
2018-05-10T07:26:07.335Z,96682.48
2018-05-10T07:28:38.326Z,96688.06
2018-05-10T07:31:09.326Z,96679.59
2018-05-10T07:33:40.332Z,96679.41
2018-05-10T07:36:11.320Z,96676.82
2018-05-10T07:38:42.317Z,96679.49
2018-05-10T07:41:13.295Z,96680.89
2018-05-10T07:43:44.278Z,96678.52
2018-05-10T07:46:15.304Z,96683.88
2018-05-10T07:48:46.263Z,96682.05
2018-05-10T07:51:17.279Z,96677.96
2018-05-10T07:53:48.267Z,96686.84
2018-05-10T07:56:19.251Z,96684.33
2018-05-10T07:58:50.227Z,96686.01
2018-05-10T08:01:21.300Z,96678.48
2018-05-10T08:03:52.253Z,96685.91
2018-05-10T08:06:23.288Z,96688.46
2018-05-10T08:08:54.243Z,96688.26
2018-05-10T08:11:25.273Z,96690.19
2018-05-10T08:13:56.268Z,96688.20
2018-05-10T08:16:27.284Z,96687.82
2018-05-10T08:18:58.298Z,96690.93
2018-05-10T08:21:29.279Z,96698.57
2018-05-10T08:24:00.305Z,96698.43
2018-05-10T08:26:31.341Z,96695.77
2018-05-10T08:29:02.354Z,96696.72
2018-05-10T08:31:33.361Z,96695.10
2018-05-10T08:34:04.373Z,96696.87
2018-05-10T08:36:35.397Z,96705.60
2018-05-10T08:39:06.409Z,96692.44
2018-05-10T08:41:37.378Z,96699.74
2018-05-10T08:44:08.382Z,96694.48
2018-05-10T08:46:39.382Z,96692.64
2018-05-10T08:49:17.318Z,96696.09
2018-05-10T08:51:48.453Z,96701.50
2018-05-10T08:54:19.394Z,96707.22
2018-05-10T08:56:50.359Z,96707.47
2018-05-10T08:59:21.363Z,96705.02
2018-05-10T09:01:52.392Z,96701.15
2018-05-10T09:04:23.373Z,96700.77
2018-05-10T09:06:54.382Z,96697.45
2018-05-10T09:09:25.367Z,96700.18
2018-05-10T09:11:56.393Z,96714.89
2018-05-10T09:14:27.416Z,96715.05
2018-05-10T09:16:58.412Z,96713.47
2018-05-10T09:19:29.441Z,96709.32
2018-05-10T09:22:00.466Z,96710.55
2018-05-10T09:24:31.496Z,96716.50
2018-05-10T09:27:02.516Z,96711.22
2018-05-10T09:29:33.489Z,96706.62
2018-05-10T09:32:04.471Z,96715.33
2018-05-10T09:34:35.475Z,96711.22
2018-05-10T09:37:06.461Z,96710.90
2018-05-10T09:39:37.465Z,96710.11
2018-05-10T09:42:08.497Z,96715.16
2018-05-10T09:44:39.430Z,96717.67
2018-05-10T09:47:10.448Z,96725.13
2018-05-10T09:49:41.456Z,96721.00
2018-05-10T09:52:12.478Z,96722.02
2018-05-10T09:54:43.473Z,96721.96
2018-05-10T09:57:14.502Z,96715.48
2018-05-10T09:59:45.608Z,96719.09
2018-05-10T10:02:16.578Z,96719.12
2018-05-10T10:04:47.546Z,96716.27
2018-05-10T10:07:18.595Z,96718.84
2018-05-10T10:09:49.611Z,96711.00
2018-05-10T10:12:20.647Z,96713.79
2018-05-10T10:14:51.660Z,96721.45
2018-05-10T10:17:22.624Z,96723.44
2018-05-10T10:19:53.610Z,96709.97
2018-05-10T10:22:24.633Z,96720.47
2018-05-10T10:24:55.667Z,96719.64
2018-05-10T10:27:26.749Z,96716.17
2018-05-10T10:29:57.726Z,96718.81
2018-05-10T10:32:28.740Z,96720.05
2018-05-10T10:34:59.734Z,96723.00
2018-05-10T10:37:30.728Z,96731.95
2018-05-10T10:40:01.691Z,96739.73
2018-05-10T10:42:32.678Z,96748.70
2018-05-10T10:45:03.688Z,96753.92
2018-05-10T10:47:34.719Z,96753.44
2018-05-10T10:50:05.728Z,96750.48
2018-05-10T10:52:36.732Z,96762.31
2018-05-10T10:55:07.714Z,96768.47
2018-05-10T10:57:38.724Z,96786.02
2018-05-10T11:00:09.669Z,96785.48
2018-05-10T11:02:40.680Z,96791.53
2018-05-10T11:05:11.689Z,96795.89
2018-05-10T11:07:42.769Z,96792.86
2018-05-10T11:10:13.808Z,96797.28
2018-05-10T11:12:44.792Z,96806.97
2018-05-10T11:15:15.791Z,96822.64
2018-05-10T11:17:46.768Z,96829.89
2018-05-10T11:20:17.766Z,96838.53
2018-05-10T11:22:48.743Z,96827.94
2018-05-10T11:25:19.733Z,96836.44
2018-05-10T11:27:50.719Z,96831.55
2018-05-10T11:30:21.778Z,96824.72
2018-05-10T11:32:52.767Z,96828.16
2018-05-10T11:35:23.766Z,96826.81
2018-05-10T11:37:54.740Z,96836.32
2018-05-10T11:40:25.740Z,96834.23
2018-05-10T11:42:56.704Z,96833.45
2018-05-10T11:45:27.695Z,96830.02
2018-05-10T11:47:58.712Z,96835.47
2018-05-10T11:50:29.739Z,96836.47
2018-05-10T11:53:00.732Z,96840.34
2018-05-10T11:55:31.727Z,96843.83
2018-05-10T11:58:02.806Z,96833.55
2018-05-10T12:00:33.815Z,96841.33
2018-05-10T12:03:04.864Z,96842.66
2018-05-10T12:05:35.835Z,96838.02
2018-05-10T12:08:06.902Z,96845.20
2018-05-10T12:10:37.865Z,96840.30
2018-05-10T12:13:08.874Z,96844.38
2018-05-10T12:15:39.952Z,96853.11
2018-05-10T12:18:10.932Z,96846.34
2018-05-10T12:20:41.932Z,96855.25
2018-05-10T12:23:12.987Z,96859.66
2018-05-10T12:25:43.954Z,96866.61
2018-05-10T12:28:15.027Z,96872.84
2018-05-10T12:30:46.051Z,96877.30
2018-05-10T12:33:17.064Z,96879.45
2018-05-10T12:35:48.034Z,96877.91
2018-05-10T12:38:19.014Z,96876.35
2018-05-10T12:40:50.115Z,96883.53
2018-05-10T12:43:21.073Z,96886.64
2018-05-10T12:45:52.093Z,96896.31
2018-05-10T12:48:23.561Z,96900.22
2018-05-10T12:50:54.579Z,96903.45
2018-05-10T12:53:25.606Z,96907.77
2018-05-10T12:55:56.586Z,96904.47
2018-05-10T12:58:27.573Z,96911.48
2018-05-10T13:00:58.574Z,96907.63
2018-05-10T13:03:29.571Z,96924.76
2018-05-10T13:06:00.584Z,96926.38
2018-05-10T13:08:31.637Z,96927.36
2018-05-10T13:11:02.616Z,96924.58
2018-05-10T13:13:33.648Z,96929.58
2018-05-10T13:16:04.684Z,96938.25
2018-05-10T13:18:35.663Z,96940.09
2018-05-10T13:21:06.653Z,96936.05
2018-05-10T13:23:37.656Z,96949.48
2018-05-10T13:26:08.665Z,96950.37
2018-05-10T13:28:39.718Z,96940.34
2018-05-10T13:31:10.717Z,96954.70
2018-05-10T13:33:41.722Z,96955.97
2018-05-10T13:36:12.717Z,96960.45
2018-05-10T13:38:43.695Z,96954.65
2018-05-10T13:41:14.722Z,96959.17
2018-05-10T13:43:45.773Z,96960.34
2018-05-10T13:46:16.787Z,96965.41
2018-05-10T13:48:47.781Z,96971.45
2018-05-10T13:51:18.799Z,96975.63
2018-05-10T13:53:49.778Z,96974.03
2018-05-10T13:56:20.787Z,96977.76
2018-05-10T13:58:51.804Z,96973.02
2018-05-10T14:01:22.878Z,96974.27
2018-05-10T14:03:53.856Z,96979.74
2018-05-10T14:06:24.896Z,96984.01
2018-05-10T14:08:55.943Z,97002.10
2018-05-10T14:11:26.937Z,96999.83
2018-05-10T14:13:57.910Z,97005.02
2018-05-10T14:16:28.946Z,97012.52
2018-05-10T14:18:59.974Z,97012.89
2018-05-10T14:21:30.944Z,97025.19
2018-05-10T14:24:01.958Z,97016.44
2018-05-10T14:26:32.942Z,97027.95
2018-05-10T14:29:03.996Z,97033.95
2018-05-10T14:31:41.848Z,97037.92
2018-05-10T14:34:13.142Z,97042.69
2018-05-10T14:36:44.130Z,97043.11
2018-05-10T14:39:15.113Z,97049.91
2018-05-10T14:41:46.138Z,97051.92
2018-05-10T14:44:17.137Z,97048.27
2018-05-10T14:46:48.208Z,97051.51
2018-05-10T14:49:19.161Z,97051.66
2018-05-10T14:51:50.122Z,97054.92
2018-05-10T14:54:21.119Z,97053.58
2018-05-10T14:56:52.139Z,97054.52
2018-05-10T14:59:23.121Z,97053.55
2018-05-10T15:01:54.082Z,97051.66
2018-05-10T15:04:25.074Z,97058.50
2018-05-10T15:06:56.042Z,97068.25
2018-05-10T15:09:27.071Z,97070.15
2018-05-10T15:11:58.048Z,97064.81
2018-05-10T15:14:29.086Z,97057.24
2018-05-10T15:17:00.120Z,97060.59
2018-05-10T15:19:31.117Z,97064.97
2018-05-10T15:22:02.125Z,97059.89
2018-05-10T15:24:33.160Z,97059.20
2018-05-10T15:27:04.215Z,97059.58
2018-05-10T15:29:35.227Z,97060.20
2018-05-10T15:32:06.287Z,97067.93
2018-05-10T15:34:37.239Z,97058.41
2018-05-10T15:37:08.216Z,97057.98
2018-05-10T15:39:39.240Z,97069.66
2018-05-10T15:42:10.280Z,97062.39
2018-05-10T15:44:41.261Z,97066.08
2018-05-10T15:47:12.232Z,97068.96
2018-05-10T15:49:43.338Z,97076.84
2018-05-10T15:52:14.226Z,97071.59
2018-05-10T15:54:45.262Z,97068.39
2018-05-10T15:57:16.276Z,97073.38
2018-05-10T15:59:47.262Z,97075.44
2018-05-10T16:02:18.269Z,97079.79
2018-05-10T16:04:49.265Z,97084.18
2018-05-10T16:07:20.306Z,97091.70
2018-05-10T16:09:52.163Z,97088.36
2018-05-10T16:12:23.191Z,97096.16
2018-05-10T16:14:54.215Z,97092.72
2018-05-10T16:17:25.201Z,97100.42
2018-05-10T16:19:56.232Z,97102.22
2018-05-10T16:22:27.242Z,97092.80
2018-05-10T16:24:58.210Z,97094.28
2018-05-10T16:27:29.254Z,97102.47
2018-05-10T16:30:00.256Z,97097.71
2018-05-10T16:32:31.280Z,97099.86
2018-05-10T16:35:02.293Z,97105.81
2018-05-10T16:37:33.344Z,97111.20
2018-05-10T16:40:04.366Z,97115.75
2018-05-10T16:42:35.499Z,97114.86
2018-05-10T16:45:06.555Z,97121.86
2018-05-10T16:47:37.526Z,97121.75
2018-05-10T16:50:08.540Z,97119.16
2018-05-10T16:52:39.531Z,97121.66
2018-05-10T16:55:10.560Z,97124.50
2018-05-10T16:57:41.551Z,97131.41
2018-05-10T17:00:12.600Z,97137.08
2018-05-10T17:02:43.569Z,97136.34
2018-05-10T17:05:14.613Z,97145.19
2018-05-10T17:07:45.635Z,97141.18
2018-05-10T17:10:16.615Z,97150.23
2018-05-10T17:12:47.616Z,97155.17
2018-05-10T17:15:18.648Z,97154.88
2018-05-10T17:17:49.682Z,97161.36
2018-05-10T17:20:20.708Z,97169.91
2018-05-10T17:22:51.726Z,97176.08
2018-05-10T17:25:22.771Z,97175.47
2018-05-10T17:27:53.791Z,97176.55
2018-05-10T17:30:24.761Z,97180.52
2018-05-10T17:32:55.774Z,97184.32
2018-05-10T17:35:26.787Z,97187.55
2018-05-10T17:37:57.813Z,97189.58
2018-05-10T17:40:28.834Z,97195.19
2018-05-10T17:42:59.858Z,97191.88
2018-05-10T17:45:30.857Z,97200.43
2018-05-10T17:48:01.902Z,97216.23
2018-05-10T17:50:32.881Z,97219.00
2018-05-10T17:53:03.918Z,97231.22
2018-05-10T17:55:34.903Z,97231.96
2018-05-10T17:58:05.980Z,97247.02
2018-05-10T18:00:37.175Z,97246.59
2018-05-10T18:03:08.210Z,97260.42
2018-05-10T18:05:39.212Z,97273.80
2018-05-10T18:08:10.213Z,97276.91
2018-05-10T18:10:41.181Z,97288.56
2018-05-10T18:13:12.187Z,97295.27
2018-05-10T18:15:43.229Z,97301.73
2018-05-10T18:18:14.186Z,97314.08
2018-05-10T18:20:45.201Z,97322.64
2018-05-10T18:23:16.304Z,97335.84
2018-05-10T18:25:47.214Z,97345.81
2018-05-10T18:28:18.216Z,97355.83
2018-05-10T18:30:49.232Z,97368.47
2018-05-10T18:33:20.261Z,97379.56
2018-05-10T18:35:51.283Z,97385.67
2018-05-10T18:38:22.242Z,97387.55
2018-05-10T18:40:53.355Z,97394.21
2018-05-10T18:43:24.801Z,97403.33
2018-05-10T18:45:55.811Z,97400.28
2018-05-10T18:48:26.941Z,97410.70
2018-05-10T18:50:57.866Z,97413.58
2018-05-10T18:53:28.898Z,97422.90
2018-05-10T18:55:59.910Z,97427.50
2018-05-10T18:58:30.942Z,97442.55
2018-05-10T19:01:02.019Z,97449.91
2018-05-10T19:03:33.188Z,97459.00
2018-05-10T19:06:04.162Z,97475.16
2018-05-10T19:08:35.131Z,97479.20
2018-05-10T19:11:06.149Z,97481.36
2018-05-10T19:13:37.108Z,97493.33
2018-05-10T19:16:08.185Z,97507.09
2018-05-10T19:18:39.143Z,97513.61
2018-05-10T19:21:12.174Z,97517.39
2018-05-10T19:23:44.275Z,97526.72
2018-05-10T19:26:17.555Z,97532.07
2018-05-10T19:28:49.773Z,97535.28
2018-05-10T19:31:22.238Z,97539.39
2018-05-10T19:33:54.711Z,97545.83
2018-05-10T19:36:25.804Z,97553.69
2018-05-10T19:38:58.367Z,97562.42
2018-05-10T19:41:29.476Z,97557.32
2018-05-10T19:44:00.460Z,97573.09
2018-05-10T19:46:31.409Z,97578.41
2018-05-10T19:49:02.418Z,97581.08
2018-05-10T19:51:33.422Z,97586.80
2018-05-10T19:54:04.431Z,97606.88
2018-05-10T19:56:35.477Z,97609.45
2018-05-10T19:59:06.385Z,97610.61
2018-05-10T20:01:37.362Z,97619.20
2018-05-10T20:04:08.388Z,97622.64
2018-05-10T20:06:39.403Z,97628.36
2018-05-10T20:09:17.349Z,97634.42
2018-05-10T20:11:48.405Z,97645.93
2018-05-10T20:14:21.538Z,97653.52
2018-05-10T20:16:54.566Z,97650.71
2018-05-10T20:19:27.775Z,97655.69
2018-05-10T20:22:01.092Z,97656.50
2018-05-10T20:24:33.732Z,97663.22
2018-05-10T20:27:07.538Z,97666.80
2018-05-10T20:29:41.150Z,97663.13
2018-05-10T20:32:14.501Z,97669.24
2018-05-10T20:34:46.842Z,97669.07
2018-05-10T20:37:19.512Z,97670.06
2018-05-10T20:39:52.465Z,97673.80
2018-05-10T20:42:25.084Z,97676.85
2018-05-10T20:44:58.035Z,97674.14
2018-05-10T20:47:32.137Z,97684.52
2018-05-10T20:50:04.555Z,97686.19
2018-05-10T20:52:37.615Z,97689.97
2018-05-10T20:55:10.167Z,97695.79
2018-05-10T20:57:43.458Z,97694.15
2018-05-10T21:00:15.984Z,97698.31
2018-05-10T21:02:49.142Z,97699.01
2018-05-10T21:05:21.485Z,97702.31
2018-05-10T21:07:54.258Z,97707.96
2018-05-10T21:10:26.890Z,97708.55
2018-05-10T21:12:59.242Z,97719.92
2018-05-10T21:15:31.881Z,97718.26
2018-05-10T21:18:04.220Z,97725.39
2018-05-10T21:20:37.531Z,97730.17
2018-05-10T21:23:10.580Z,97738.08
2018-05-10T21:25:41.800Z,97740.19
2018-05-10T21:28:12.778Z,97745.59
2018-05-10T21:30:43.756Z,97744.51
2018-05-10T21:33:14.681Z,97752.19
2018-05-10T21:35:45.655Z,97751.11
2018-05-10T21:38:16.883Z,97755.24
2018-05-10T21:40:47.868Z,97758.20
2018-05-10T21:43:18.866Z,97768.66
2018-05-10T21:45:49.856Z,97765.25
2018-05-10T21:48:20.877Z,97772.69
2018-05-10T21:50:51.889Z,97768.05
2018-05-10T21:53:22.988Z,97776.34
2018-05-10T21:55:53.903Z,97782.77
2018-05-10T21:58:24.920Z,97778.02
2018-05-10T22:00:55.900Z,97781.97
2018-05-10T22:03:26.895Z,97777.63
2018-05-10T22:05:57.882Z,97780.51
2018-05-10T22:08:28.886Z,97783.92
2018-05-10T22:10:59.844Z,97785.34
2018-05-10T22:13:30.914Z,97788.88
2018-05-10T22:16:01.914Z,97788.03
2018-05-10T22:18:32.929Z,97793.84
2018-05-10T22:21:03.897Z,97789.50
2018-05-10T22:23:34.875Z,97798.49
2018-05-10T22:26:05.797Z,97803.53
2018-05-10T22:28:36.823Z,97798.09
2018-05-10T22:31:07.773Z,97799.64
2018-05-10T22:33:38.755Z,97797.16
2018-05-10T22:36:09.752Z,97800.22
2018-05-10T22:38:40.718Z,97805.20
2018-05-10T22:41:11.655Z,97799.36
2018-05-10T22:43:42.645Z,97802.25
2018-05-10T22:46:13.661Z,97807.06
2018-05-10T22:48:44.646Z,97801.62
2018-05-10T22:51:15.650Z,97799.36
2018-05-10T22:53:46.666Z,97805.57
2018-05-10T22:56:17.660Z,97799.32
2018-05-10T22:58:48.708Z,97801.45
2018-05-10T23:01:19.734Z,97808.03
2018-05-10T23:03:50.735Z,97803.38
2018-05-10T23:06:21.724Z,97807.90
2018-05-10T23:08:52.752Z,97807.63
2018-05-10T23:11:23.718Z,97801.39
2018-05-10T23:13:54.724Z,97804.08
2018-05-10T23:16:25.706Z,97798.77
2018-05-10T23:18:56.662Z,97796.41
2018-05-10T23:21:27.659Z,97798.90
2018-05-10T23:23:58.617Z,97804.88
2018-05-10T23:26:29.597Z,97795.05
2018-05-10T23:29:00.603Z,97803.45
2018-05-10T23:31:31.590Z,97797.58
2018-05-10T23:34:02.600Z,97795.45
2018-05-10T23:36:33.538Z,97796.77
2018-05-10T23:39:04.591Z,97799.20
2018-05-10T23:41:35.585Z,97804.80
2018-05-10T23:44:06.576Z,97806.55
2018-05-10T23:46:37.582Z,97799.63
2018-05-10T23:49:08.550Z,97802.38
2018-05-10T23:51:39.506Z,97803.73
2018-05-10T23:54:10.467Z,97809.05
2018-05-10T23:56:41.474Z,97811.28
2018-05-10T23:59:12.496Z,97806.09
